createdAt,value
2023-02-19T00:01:13.390Z,17.48
2023-02-19T00:03:41.205Z,18.65
2023-02-19T00:06:10.622Z,16.88
2023-02-19T00:08:38.796Z,11.15
2023-02-19T00:11:17.860Z,16.58
2023-02-19T00:13:47.990Z,13.20
2023-02-19T00:16:23.138Z,14.00
2023-02-19T00:18:50.546Z,17.00
2023-02-19T00:21:17.972Z,12.95
2023-02-19T00:23:49.246Z,12.85
2023-02-19T00:26:18.475Z,11.77
2023-02-19T00:28:49.845Z,19.50
2023-02-19T00:31:22.825Z,13.52
2023-02-19T00:33:51.969Z,14.98
2023-02-19T00:36:19.137Z,20.55
2023-02-19T00:38:46.292Z,14.10
2023-02-19T00:41:20.323Z,12.73
2023-02-19T00:43:57.383Z,15.57
2023-02-19T00:46:30.297Z,14.65
2023-02-19T00:48:57.819Z,24.48
2023-02-19T00:51:27.305Z,14.13
2023-02-19T00:53:54.238Z,20.38
2023-02-19T00:56:21.298Z,12.10
2023-02-19T00:58:48.845Z,12.65
2023-02-19T01:01:16.410Z,16.05
2023-02-19T01:03:43.572Z,18.42
2023-02-19T01:06:13.019Z,19.60
2023-02-19T01:08:39.691Z,20.25
2023-02-19T01:11:07.644Z,14.07
2023-02-19T01:13:34.685Z,17.15
2023-02-19T01:16:04.094Z,16.85
2023-02-19T01:18:32.184Z,11.82
2023-02-19T01:20:59.086Z,14.25
2023-02-19T01:23:26.172Z,19.27
2023-02-19T01:25:52.809Z,14.30
2023-02-19T01:28:19.562Z,12.35
2023-02-19T01:30:46.189Z,17.80
2023-02-19T01:33:12.751Z,18.73
2023-02-19T01:35:40.025Z,13.00
2023-02-19T01:38:08.317Z,25.50
2023-02-19T01:40:35.006Z,12.40
2023-02-19T01:43:01.649Z,16.73
2023-02-19T01:45:31.026Z,11.57
2023-02-19T01:48:07.996Z,12.63
2023-02-19T01:50:40.403Z,10.85
2023-02-19T01:53:11.219Z,16.17
2023-02-19T01:55:39.417Z,15.02
2023-02-19T01:58:06.510Z,11.55
2023-02-19T02:00:34.468Z,14.95
2023-02-19T02:03:01.828Z,15.73
2023-02-19T02:05:50.967Z,15.18
2023-02-19T02:08:37.102Z,15.40
2023-02-19T02:11:04.717Z,16.00
2023-02-19T02:13:33.928Z,20.90
2023-02-19T02:16:16.854Z,14.05
2023-02-19T02:19:15.377Z,21.73
2023-02-19T02:22:00.329Z,22.48
2023-02-19T02:24:45.741Z,19.08
2023-02-19T02:27:36.882Z,21.45
2023-02-19T02:30:27.458Z,26.98
2023-02-19T02:33:05.851Z,23.40
2023-02-19T02:35:42.794Z,16.52
2023-02-19T02:38:13.132Z,17.70
2023-02-19T02:40:43.087Z,15.30
2023-02-19T02:43:09.883Z,13.60
2023-02-19T02:45:36.935Z,16.70
2023-02-19T02:48:07.716Z,9.02
2023-02-19T02:51:03.280Z,18.95
2023-02-19T02:53:59.025Z,12.05
2023-02-19T02:56:26.640Z,15.35
2023-02-19T02:58:56.544Z,11.20
2023-02-19T03:01:48.227Z,10.55
2023-02-19T03:04:27.472Z,11.48
2023-02-19T03:06:55.396Z,15.38
2023-02-19T03:09:40.727Z,13.85
2023-02-19T03:12:32.035Z,13.93
2023-02-19T03:15:21.757Z,12.23
2023-02-19T03:18:11.285Z,14.75
2023-02-19T03:20:43.365Z,9.82
2023-02-19T03:23:11.881Z,12.27
2023-02-19T03:25:58.697Z,9.02
2023-02-19T03:28:48.946Z,11.57
2023-02-19T03:31:20.915Z,9.70
2023-02-19T03:33:52.567Z,14.63
2023-02-19T03:36:27.429Z,11.30
2023-02-19T03:39:04.457Z,8.93
2023-02-19T03:41:49.037Z,10.35
2023-02-19T03:44:18.313Z,10.85
2023-02-19T03:47:03.573Z,9.45
2023-02-19T03:49:42.534Z,10.70
2023-02-19T03:52:28.746Z,9.93
2023-02-19T03:55:09.612Z,10.38
2023-02-19T03:57:51.844Z,10.73
2023-02-19T04:00:24.850Z,10.35
2023-02-19T04:03:02.882Z,12.13
2023-02-19T04:05:32.168Z,9.70
2023-02-19T04:08:06.376Z,9.18
2023-02-19T04:10:33.388Z,10.95
2023-02-19T04:13:06.504Z,11.15
2023-02-19T04:15:35.276Z,8.25
2023-02-19T04:18:09.094Z,6.72
2023-02-19T04:20:42.401Z,9.95
2023-02-19T04:23:09.496Z,10.02
2023-02-19T04:25:38.221Z,10.75
2023-02-19T04:28:05.316Z,9.00
2023-02-19T04:30:32.063Z,8.80
2023-02-19T04:32:58.671Z,7.75
2023-02-19T04:35:25.227Z,9.43
2023-02-19T04:37:51.870Z,10.55
2023-02-19T04:40:18.575Z,8.50
2023-02-19T04:42:45.195Z,8.43
2023-02-19T04:45:11.775Z,8.15
2023-02-19T04:47:38.380Z,9.15
2023-02-19T04:50:05.265Z,7.07
2023-02-19T04:52:33.344Z,7.55
2023-02-19T04:54:59.964Z,6.00
2023-02-19T04:57:26.662Z,8.65
2023-02-19T04:59:53.573Z,7.28
2023-02-19T05:02:20.302Z,8.23
2023-02-19T05:04:46.843Z,9.40
2023-02-19T05:07:13.606Z,7.43
2023-02-19T05:09:40.230Z,8.07
2023-02-19T05:12:07.082Z,8.52
2023-02-19T05:14:33.834Z,7.05
2023-02-19T05:17:00.409Z,8.85
2023-02-19T05:19:27.107Z,13.93
2023-02-19T05:21:53.758Z,7.30
2023-02-19T05:24:20.503Z,10.15
2023-02-19T05:26:48.301Z,8.73
2023-02-19T05:29:14.903Z,8.05
2023-02-19T05:31:41.690Z,8.40
2023-02-19T05:34:08.390Z,9.00
2023-02-19T05:36:34.939Z,20.67
2023-02-19T05:39:01.685Z,15.23
2023-02-19T05:41:30.678Z,11.90
2023-02-19T05:43:58.028Z,8.35
2023-02-19T05:46:27.376Z,18.30
2023-02-19T05:48:54.467Z,9.90
2023-02-19T05:51:23.555Z,11.45
2023-02-19T05:53:51.202Z,13.15
2023-02-19T05:56:23.737Z,9.82
2023-02-19T05:58:50.397Z,14.75
2023-02-19T06:01:19.252Z,11.20
2023-02-19T06:03:46.022Z,16.13
2023-02-19T06:06:14.526Z,12.18
2023-02-19T06:08:41.279Z,12.02
2023-02-19T06:11:08.264Z,12.02
2023-02-19T06:13:35.264Z,12.25
2023-02-19T06:16:06.218Z,12.05
2023-02-19T06:18:33.006Z,13.45
2023-02-19T06:21:04.617Z,12.20
2023-02-19T06:23:31.945Z,13.77
2023-02-19T06:26:10.075Z,16.98
2023-02-19T06:28:37.126Z,10.18
2023-02-19T06:31:05.112Z,18.05
2023-02-19T06:33:32.365Z,23.95
2023-02-19T06:36:01.697Z,15.52
2023-02-19T06:38:28.799Z,19.98
2023-02-19T06:40:55.775Z,17.98
2023-02-19T06:43:22.395Z,15.88
2023-02-19T06:45:49.081Z,16.10
2023-02-19T06:48:15.795Z,11.60
2023-02-19T06:50:42.400Z,12.48
2023-02-19T06:53:10.085Z,11.15
2023-02-19T06:55:36.713Z,16.27
2023-02-19T06:58:03.268Z,13.65
2023-02-19T07:00:30.078Z,14.88
2023-02-19T07:02:56.766Z,11.77
2023-02-19T07:05:23.559Z,15.00
2023-02-19T07:07:50.187Z,17.13
2023-02-19T07:10:17.281Z,13.15
2023-02-19T07:12:43.992Z,13.50
2023-02-19T07:15:10.704Z,14.57
2023-02-19T07:17:37.321Z,15.82
2023-02-19T07:20:04.238Z,13.45
2023-02-19T07:22:30.856Z,25.17
2023-02-19T07:24:57.459Z,16.30
2023-02-19T07:27:24.172Z,15.90
2023-02-19T07:29:50.987Z,14.30
2023-02-19T07:32:17.607Z,14.07
2023-02-19T07:34:44.286Z,27.58
2023-02-19T07:37:11.166Z,26.88
2023-02-19T07:39:38.954Z,16.55
2023-02-19T07:42:05.908Z,16.67
2023-02-19T07:44:32.610Z,13.38
2023-02-19T07:46:59.598Z,14.20
2023-02-19T07:49:26.231Z,16.17
2023-02-19T07:51:52.846Z,7.72
2023-02-19T07:54:19.714Z,11.05
2023-02-19T07:56:46.575Z,12.60
2023-02-19T07:59:13.350Z,9.38
2023-02-19T08:01:58.703Z,10.52
2023-02-19T08:04:26.123Z,8.35
2023-02-19T08:06:53.351Z,7.35
2023-02-19T08:09:20.416Z,9.90
2023-02-19T08:12:05.995Z,19.00
2023-02-19T08:14:33.686Z,18.25
2023-02-19T08:17:01.563Z,14.52
2023-02-19T08:19:28.282Z,8.80
2023-02-19T08:21:55.029Z,11.00
2023-02-19T08:24:21.663Z,11.70
2023-02-19T08:26:48.355Z,10.95
2023-02-19T08:29:16.352Z,10.15
2023-02-19T08:31:43.086Z,8.40
2023-02-19T08:34:09.958Z,11.15
2023-02-19T08:36:36.703Z,7.00
2023-02-19T08:39:06.304Z,7.68
2023-02-19T08:41:32.940Z,9.93
2023-02-19T08:43:59.515Z,7.35
2023-02-19T08:46:26.254Z,6.60
2023-02-19T08:48:52.964Z,7.30
2023-02-19T08:51:29.524Z,6.80
2023-02-19T08:53:56.617Z,7.25
2023-02-19T08:56:23.414Z,6.68
2023-02-19T08:58:50.404Z,8.93
2023-02-19T09:01:18.839Z,6.90
2023-02-19T09:03:45.785Z,8.18
2023-02-19T09:06:20.540Z,29.92
2023-02-19T09:08:47.305Z,11.40
2023-02-19T09:11:15.073Z,7.72
2023-02-19T09:13:41.961Z,7.65
2023-02-19T09:16:08.960Z,4.70
2023-02-19T09:18:36.506Z,6.65
2023-02-19T09:21:05.483Z,7.20
2023-02-19T09:23:36.642Z,5.55
2023-02-19T09:26:06.824Z,13.93
2023-02-19T09:28:33.436Z,9.27
2023-02-19T09:31:08.404Z,6.18
2023-02-19T09:33:35.620Z,8.25
2023-02-19T09:36:03.013Z,9.23
2023-02-19T09:38:34.046Z,7.55
2023-02-19T09:41:07.944Z,5.13
2023-02-19T09:43:35.641Z,5.97
2023-02-19T09:46:26.331Z,13.05
2023-02-19T09:49:03.683Z,7.28
2023-02-19T09:51:33.950Z,5.40
2023-02-19T09:54:04.320Z,8.48
2023-02-19T09:56:31.404Z,7.40
2023-02-19T09:59:02.000Z,5.07
2023-02-19T10:01:33.591Z,6.95
2023-02-19T10:04:04.056Z,6.90
2023-02-19T10:06:32.740Z,5.95
2023-02-19T10:09:24.125Z,5.63
2023-02-19T10:11:52.660Z,5.00
2023-02-19T10:14:35.500Z,6.68
2023-02-19T10:17:05.480Z,5.88
2023-02-19T10:19:48.009Z,3.88
2023-02-19T10:22:14.640Z,8.45
2023-02-19T10:24:42.853Z,4.88
2023-02-19T10:27:14.947Z,6.78
2023-02-19T10:32:24.315Z,7.28
2023-02-19T10:35:14.128Z,6.13
2023-02-19T10:37:50.654Z,5.72
2023-02-19T10:40:23.550Z,5.13
2023-02-19T10:42:59.616Z,9.45
2023-02-19T10:45:47.677Z,5.45
2023-02-19T10:48:28.353Z,5.68
2023-02-19T10:51:05.065Z,6.25
2023-02-19T10:53:50.701Z,5.95
2023-02-19T10:56:29.833Z,7.20
2023-02-19T10:59:16.399Z,9.07
2023-02-19T11:02:01.804Z,7.60
2023-02-19T11:04:35.200Z,5.05
2023-02-19T11:07:17.083Z,7.88
2023-02-19T11:09:53.559Z,10.02
2023-02-19T11:12:29.904Z,6.80
2023-02-19T11:14:57.023Z,6.22
2023-02-19T11:17:29.334Z,9.13
2023-02-19T11:19:58.830Z,4.82
2023-02-19T11:22:42.114Z,7.68
2023-02-19T11:25:15.482Z,4.55
2023-02-19T11:28:08.058Z,6.57
2023-02-19T11:30:38.546Z,5.18
2023-02-19T11:33:17.290Z,4.55
2023-02-19T11:35:47.932Z,4.35
2023-02-19T11:38:19.711Z,3.17
2023-02-19T11:41:04.995Z,5.65
2023-02-19T11:43:50.372Z,4.72
2023-02-19T11:46:28.773Z,5.10
2023-02-19T11:49:34.086Z,3.90
2023-02-19T11:52:34.194Z,5.38
2023-02-19T11:55:20.962Z,10.85
2023-02-19T11:57:58.919Z,6.85
2023-02-19T12:00:29.168Z,5.05
2023-02-19T12:03:32.027Z,5.38
2023-02-19T12:06:12.678Z,7.38
2023-02-19T12:09:15.119Z,3.90
2023-02-19T12:12:21.816Z,5.00
2023-02-19T12:15:49.003Z,11.38
2023-02-19T12:18:28.726Z,5.05
2023-02-19T12:21:04.723Z,3.42
2023-02-19T12:23:45.896Z,7.55
2023-02-19T12:26:25.054Z,5.75
2023-02-19T12:29:12.615Z,4.63
2023-02-19T12:31:56.362Z,5.45
2023-02-19T12:34:32.212Z,10.10
2023-02-19T12:37:11.744Z,6.05
2023-02-19T12:39:49.677Z,5.15
2023-02-19T12:42:34.849Z,5.97
2023-02-19T12:45:07.337Z,6.25
2023-02-19T12:47:40.886Z,5.05
2023-02-19T12:50:21.870Z,4.72
2023-02-19T12:53:14.396Z,6.03
2023-02-19T12:55:45.331Z,5.35
2023-02-19T12:58:21.891Z,5.30
2023-02-19T13:00:53.373Z,5.68
2023-02-19T13:03:34.904Z,5.82
2023-02-19T13:06:04.576Z,6.07
2023-02-19T13:11:37.767Z,4.53
2023-02-19T13:14:21.822Z,4.63
2023-02-19T13:16:55.890Z,5.10
2023-02-19T13:19:22.551Z,5.07
2023-02-19T13:22:22.247Z,6.00
2023-02-19T13:24:50.973Z,6.70
2023-02-19T13:30:32.648Z,5.82
2023-02-19T13:33:32.386Z,3.80
2023-02-19T13:36:24.135Z,5.88
2023-02-19T13:38:57.763Z,7.07
2023-02-19T13:41:28.763Z,7.28
2023-02-19T13:43:59.620Z,3.60
2023-02-19T13:46:40.624Z,4.38
2023-02-19T13:49:29.205Z,10.40
2023-02-19T13:51:56.995Z,8.13
2023-02-19T13:54:31.474Z,4.20
2023-02-19T13:57:19.811Z,7.30
2023-02-19T13:59:48.282Z,3.50
2023-02-19T14:02:21.307Z,5.82
2023-02-19T14:04:51.976Z,7.03
2023-02-19T14:07:19.006Z,5.75
2023-02-19T14:09:47.206Z,5.95
2023-02-19T14:12:15.907Z,6.05
2023-02-19T14:14:47.114Z,7.53
2023-02-19T14:17:29.376Z,10.55
2023-02-19T14:20:22.881Z,8.07
2023-02-19T14:23:01.593Z,5.35
2023-02-19T14:25:31.192Z,6.90
2023-02-19T14:28:06.823Z,6.55
2023-02-19T14:30:35.328Z,6.88
2023-02-19T14:33:15.786Z,6.47
2023-02-19T14:35:45.529Z,5.97
2023-02-19T14:38:24.233Z,5.35
2023-02-19T14:40:54.608Z,6.85
2023-02-19T14:43:24.552Z,10.70
2023-02-19T14:46:04.644Z,5.93
2023-02-19T14:48:37.135Z,6.32
2023-02-19T14:51:08.962Z,8.10
2023-02-19T14:53:42.133Z,9.82
2023-02-19T14:56:21.448Z,5.25
2023-02-19T14:59:17.186Z,8.25
2023-02-19T15:01:44.463Z,7.57
2023-02-19T15:04:37.576Z,11.82
2023-02-19T15:07:08.804Z,8.73
2023-02-19T15:09:43.804Z,12.23
2023-02-19T15:12:26.289Z,8.05
2023-02-19T15:15:01.407Z,9.73
2023-02-19T15:17:31.844Z,12.05
2023-02-19T15:20:03.253Z,9.68
2023-02-19T15:22:33.928Z,8.60
2023-02-19T15:25:05.375Z,10.90
2023-02-19T15:27:33.009Z,13.70
2023-02-19T15:29:59.887Z,14.07
2023-02-19T15:32:28.159Z,14.98
2023-02-19T15:35:00.491Z,22.27
2023-02-19T15:37:31.098Z,18.13
2023-02-19T15:40:00.681Z,19.02
2023-02-19T15:43:38.622Z,9.90
2023-02-19T15:47:10.697Z,10.15
2023-02-19T15:52:50.276Z,8.23
2023-02-19T15:55:27.185Z,13.73
2023-02-19T15:58:28.942Z,13.52
2023-02-19T16:01:03.645Z,12.80
2023-02-19T16:03:35.419Z,11.65
2023-02-19T16:06:11.549Z,16.45
2023-02-19T16:08:43.562Z,15.60
2023-02-19T16:13:52.534Z,27.92
2023-02-19T16:16:34.946Z,21.65
2023-02-19T16:19:02.457Z,14.40
2023-02-19T16:21:29.418Z,16.48
2023-02-19T16:24:13.923Z,17.45
2023-02-19T16:26:42.239Z,16.02
2023-02-19T16:29:27.828Z,20.58
2023-02-19T16:31:58.142Z,10.57
2023-02-19T16:34:49.313Z,11.57
2023-02-19T16:37:41.202Z,11.07
2023-02-19T16:40:08.014Z,13.55
2023-02-19T16:42:36.264Z,16.33
2023-02-19T16:45:03.157Z,14.88
2023-02-19T16:47:32.162Z,15.60
2023-02-19T16:50:01.774Z,10.27
2023-02-19T16:52:29.364Z,16.17
2023-02-19T16:54:56.451Z,13.52
2023-02-19T16:57:23.439Z,10.48
2023-02-19T16:59:50.481Z,12.30
2023-02-19T17:02:21.358Z,13.13
2023-02-19T17:04:49.387Z,10.68
2023-02-19T17:07:18.584Z,11.75
2023-02-19T17:09:45.365Z,10.05
2023-02-19T17:12:20.013Z,11.93
2023-02-19T17:14:47.257Z,10.77
2023-02-19T17:17:14.166Z,17.70
2023-02-19T17:19:41.100Z,11.73
2023-02-19T17:22:19.456Z,14.20
2023-02-19T17:24:47.570Z,10.00
2023-02-19T17:27:17.680Z,10.98
2023-02-19T17:29:50.343Z,10.63
2023-02-19T17:32:40.096Z,16.27
2023-02-19T17:35:15.917Z,18.63
2023-02-19T17:37:56.918Z,12.93
2023-02-19T17:40:39.608Z,12.82
2023-02-19T17:46:27.864Z,8.55
2023-02-19T17:49:10.616Z,8.02
2023-02-19T17:51:38.833Z,10.00
2023-02-19T17:54:08.351Z,9.45
2023-02-19T17:57:01.115Z,10.65
2023-02-19T18:02:12.652Z,11.13
2023-02-19T18:04:41.105Z,10.32
2023-02-19T18:07:08.018Z,12.65
2023-02-19T18:09:34.831Z,10.60
2023-02-19T18:12:02.657Z,13.05
2023-02-19T18:14:32.242Z,14.60
2023-02-19T18:16:59.180Z,11.93
2023-02-19T18:19:26.188Z,13.02
2023-02-19T18:21:53.240Z,14.43
2023-02-19T18:24:20.079Z,17.83
2023-02-19T18:26:46.884Z,16.27
2023-02-19T18:29:13.802Z,11.48
2023-02-19T18:31:44.617Z,9.82
2023-02-19T18:34:19.115Z,8.98
2023-02-19T18:36:47.634Z,8.65
2023-02-19T18:39:14.770Z,7.25
2023-02-19T18:41:41.596Z,6.70
2023-02-19T18:44:23.733Z,8.57
2023-02-19T18:46:51.177Z,7.18
2023-02-19T18:49:18.494Z,14.35
2023-02-19T18:51:46.901Z,8.27
2023-02-19T18:54:14.303Z,7.18
2023-02-19T18:56:46.150Z,8.80
2023-02-19T18:59:13.768Z,9.43
2023-02-19T19:01:40.705Z,8.52
2023-02-19T19:04:07.871Z,10.73
2023-02-19T19:06:35.910Z,9.68
2023-02-19T19:09:03.896Z,8.45
2023-02-19T19:11:31.079Z,12.93
2023-02-19T19:13:58.125Z,8.48
2023-02-19T19:16:29.929Z,13.13
2023-02-19T19:18:57.024Z,12.82
2023-02-19T19:21:24.033Z,9.50
2023-02-19T19:23:51.092Z,9.23
2023-02-19T19:26:17.873Z,11.10
2023-02-19T19:28:44.995Z,10.93
2023-02-19T19:31:13.023Z,16.52
2023-02-19T19:33:43.828Z,12.32
2023-02-19T19:36:11.684Z,14.70
2023-02-19T19:38:39.238Z,14.82
2023-02-19T19:41:06.050Z,8.85
2023-02-19T19:43:33.629Z,10.02
2023-02-19T19:46:03.875Z,12.48
2023-02-19T19:48:33.874Z,12.05
2023-02-19T19:51:03.472Z,17.05
2023-02-19T19:53:30.346Z,12.18
2023-02-19T19:55:57.676Z,15.38
2023-02-19T19:58:27.225Z,18.25
2023-02-19T20:00:54.435Z,12.70
2023-02-19T20:03:23.465Z,10.57
2023-02-19T20:05:51.286Z,12.68
2023-02-19T20:08:18.351Z,15.70
2023-02-19T20:10:45.530Z,12.20
2023-02-19T20:13:15.717Z,10.63
2023-02-19T20:15:42.389Z,15.57
2023-02-19T20:18:09.586Z,7.57
2023-02-19T20:20:36.354Z,11.18
2023-02-19T20:23:03.358Z,11.88
2023-02-19T20:25:30.158Z,8.85
2023-02-19T20:27:57.041Z,9.55
2023-02-19T20:30:24.835Z,19.70
2023-02-19T20:32:52.210Z,15.13
2023-02-19T20:35:22.073Z,11.60
2023-02-19T20:37:49.574Z,10.05
2023-02-19T20:41:03.383Z,11.98
2023-02-19T20:43:34.755Z,11.85
2023-02-19T20:46:32.493Z,10.70
2023-02-19T20:49:08.781Z,11.45
2023-02-19T20:51:47.643Z,11.13
2023-02-19T20:54:18.642Z,14.82
2023-02-19T20:56:55.531Z,13.20
2023-02-19T20:59:28.866Z,10.40
2023-02-19T21:02:19.328Z,13.65
2023-02-19T21:04:48.826Z,12.30
2023-02-19T21:07:15.842Z,15.27
2023-02-19T21:09:53.236Z,16.00
2023-02-19T21:12:22.318Z,15.45
2023-02-19T21:14:49.593Z,17.73
2023-02-19T21:17:16.943Z,9.50
2023-02-19T21:19:50.144Z,20.15
2023-02-19T21:22:24.263Z,13.05
2023-02-19T21:24:53.039Z,13.35
2023-02-19T21:27:20.966Z,11.43
2023-02-19T21:29:48.793Z,13.75
2023-02-19T21:32:16.870Z,13.93
2023-02-19T21:34:43.757Z,11.50
2023-02-19T21:37:13.905Z,15.73
2023-02-19T21:39:57.900Z,12.93
2023-02-19T21:45:32.646Z,14.88
2023-02-19T21:47:59.414Z,12.48
2023-02-19T21:50:26.081Z,10.30
2023-02-19T21:52:52.938Z,13.27
2023-02-19T21:55:19.541Z,13.43
2023-02-19T21:57:46.100Z,18.58
2023-02-19T22:00:13.480Z,10.30
2023-02-19T22:02:40.126Z,9.93
2023-02-19T22:05:07.124Z,12.40
2023-02-19T22:07:33.829Z,11.32
2023-02-19T22:10:00.422Z,12.32
2023-02-19T22:12:26.999Z,11.88
2023-02-19T22:14:53.602Z,12.80
2023-02-19T22:17:20.725Z,15.70
2023-02-19T22:19:47.357Z,11.35
2023-02-19T22:22:14.827Z,12.18
2023-02-19T22:24:41.501Z,12.57
2023-02-19T22:27:08.159Z,13.02
2023-02-19T22:29:34.897Z,13.95
2023-02-19T22:32:01.590Z,10.25
2023-02-19T22:34:28.255Z,13.27
2023-02-19T22:36:54.856Z,19.35
2023-02-19T22:39:25.568Z,19.70
2023-02-19T22:41:53.586Z,13.18
2023-02-19T22:44:20.516Z,11.60
2023-02-19T22:46:55.467Z,12.05
2023-02-19T22:49:23.163Z,11.38
2023-02-19T22:51:53.600Z,12.38
2023-02-19T22:54:25.011Z,13.75
2023-02-19T22:56:51.725Z,11.90
2023-02-19T22:59:18.340Z,14.15
2023-02-19T23:01:44.934Z,11.95
2023-02-19T23:04:11.699Z,12.82
2023-02-19T23:06:41.516Z,10.43
2023-02-19T23:09:17.596Z,10.07
2023-02-19T23:11:44.919Z,13.80
2023-02-19T23:14:11.899Z,10.82
2023-02-19T23:16:38.659Z,11.18
2023-02-19T23:19:07.449Z,14.90
2023-02-19T23:21:34.376Z,13.93
2023-02-19T23:24:01.152Z,14.32
2023-02-19T23:26:27.764Z,12.80
2023-02-19T23:28:54.391Z,13.50
2023-02-19T23:31:21.106Z,14.20
2023-02-19T23:33:47.897Z,11.70
2023-02-19T23:36:15.461Z,14.50
2023-02-19T23:38:46.130Z,12.20
2023-02-19T23:41:15.608Z,16.33
2023-02-19T23:43:42.282Z,12.25
2023-02-19T23:46:09.506Z,13.55
2023-02-19T23:48:36.233Z,15.88
2023-02-19T23:51:02.913Z,11.70
2023-02-19T23:53:29.493Z,14.30
2023-02-19T23:55:56.366Z,17.92
2023-02-19T23:58:23.121Z,14.80
